Time;durP1;ratioP1;P1;durP2;ratioP2;P2;SDS_P1;SDS_P2;PMS_P1;PMS_P2;Temp;Humidity;BMP_temperature;BMP_pressure;BME280_temperature;BME280_humidity;BME280_pressure;Samples;Min_cycle;Max_cycle;Signal;HPM_P1;HPM_P2
2021/04/10 00:02:57;;;;;;;7.22;2.72;;;22.10;73.40;;;;;;5025000;28;20072;-68
2021/04/10 00:06:03;;;;;;;9.25;3.00;;;22.00;73.40;;;;;;5023728;28;20033;-68
2021/04/10 00:08:30;;;;;;;6.72;2.67;;;22.00;73.40;;;;;;5017814;28;20029;-73
2021/04/10 00:10:57;;;;;;;8.32;3.35;;;22.00;73.40;;;;;;5022070;28;20037;-69
2021/04/10 00:13:24;;;;;;;4.60;2.10;;;22.00;73.40;;;;;;5028136;28;20503;-65
2021/04/10 00:15:50;;;;;;;4.15;2.42;;;22.00;73.40;;;;;;5024540;28;20387;-67
2021/04/10 00:18:17;;;;;;;11.23;2.90;;;22.00;73.30;;;;;;5020648;28;20025;-71
2021/04/10 00:20:44;;;;;;;7.90;2.70;;;22.00;73.30;;;;;;5025013;28;20041;-69
2021/04/10 00:23:12;;;;;;;7.30;2.83;;;22.00;73.30;;;;;;5021695;28;20092;-69
2021/04/10 00:25:38;;;;;;;7.40;2.80;;;22.00;73.20;;;;;;5018132;28;20024;-71
2021/04/10 00:28:05;;;;;;;7.50;2.80;;;22.00;73.20;;;;;;5019606;28;20029;-65
2021/04/10 00:30:32;;;;;;;7.50;2.60;;;22.00;73.30;;;;;;5026715;28;20031;-69
2021/04/10 00:32:58;;;;;;;8.38;3.25;;;21.90;73.20;;;;;;5022838;28;20021;-70
2021/04/10 00:35:28;;;;;;;5.53;2.35;;;21.90;73.20;;;;;;5021936;28;20113;-66
2021/04/10 00:38:34;;;;;;;13.55;3.33;;;21.90;73.30;;;;;;5021393;28;20017;-67
2021/04/10 00:41:40;;;;;;;6.90;3.10;;;21.90;73.20;;;;;;5023552;28;20047;-70
2021/04/10 00:44:46;;;;;;;6.68;2.60;;;21.90;73.20;;;;;;5028076;28;20358;-66
2021/04/10 00:47:52;;;;;;;7.82;2.08;;;21.90;73.20;;;;;;5023338;28;20067;-69
2021/04/10 00:50:58;;;;;;;8.18;2.63;;;21.90;73.20;;;;;;5021988;28;20049;-65
2021/04/10 00:54:04;;;;;;;11.88;3.80;;;21.90;73.20;;;;;;5023701;28;20018;-66
2021/04/10 00:57:10;;;;;;;11.77;3.58;;;21.80;73.10;;;;;;5024667;28;20066;-66
2021/04/10 01:00:16;;;;;;;10.45;7.45;;;21.80;73.10;;;;;;5019825;28;20060;-67
2021/04/10 01:03:23;;;;;;;18.63;11.43;;;21.80;73.20;;;;;;5022756;28;20034;-70
2021/04/10 01:06:29;;;;;;;17.27;9.27;;;21.80;73.30;;;;;;5025881;28;20033;-65
2021/04/10 01:09:35;;;;;;;12.30;5.85;;;21.80;73.20;;;;;;5025865;28;20029;-65
2021/04/10 01:12:27;;;;;;;13.30;4.70;;;21.80;73.20;;;;;;5030880;28;20030;-73
2021/04/10 01:15:14;;;;;;;8.70;3.55;;;21.80;73.20;;;;;;5024487;28;20447;-74
2021/04/10 01:18:20;;;;;;;10.77;5.20;;;21.70;73.20;;;;;;5026365;28;20064;-71
2021/04/10 01:21:05;;;;;;;7.20;2.88;;;21.70;73.30;;;;;;5025324;28;20037;-65
2021/04/10 01:24:16;;;;;;;8.38;3.25;;;21.70;74.00;;;;;;5024530;28;20025;-66
2021/04/10 01:26:57;;;;;;;5.97;3.35;;;21.70;73.40;;;;;;5029024;28;20116;-65
2021/04/10 01:30:09;;;;;;;8.05;2.75;;;21.70;73.40;;;;;;5025461;28;20018;-71
2021/04/10 01:33:18;;;;;;;7.15;2.58;;;21.70;73.30;;;;;;5024053;28;20049;-66
2021/04/10 01:36:27;;;;;;;5.43;2.85;;;21.70;73.40;;;;;;5026544;28;20064;-65
2021/04/10 01:39:33;;;;;;;9.50;3.40;;;21.70;74.00;;;;;;5026380;28;20045;-66
2021/04/10 01:42:39;;;;;;;9.48;3.15;;;21.70;73.50;;;;;;5023758;28;20476;-66
2021/04/10 01:45:46;;;;;;;8.57;3.60;;;21.70;73.40;;;;;;5020867;28;20034;-65
2021/04/10 01:48:15;;;;;;;7.03;2.95;;;21.60;73.40;;;;;;5025180;28;20026;-66
2021/04/10 01:50:42;;;;;;;19.02;9.57;;;21.60;73.40;;;;;;5024148;28;20030;-66
2021/04/10 01:53:11;;;;;;;13.95;9.40;;;21.60;73.40;;;;;;5027333;28;20066;-68
2021/04/10 01:55:39;;;;;;;11.15;6.93;;;21.60;73.40;;;;;;5026855;28;20022;-68
2021/04/10 01:58:46;;;;;;;11.32;6.50;;;21.60;73.40;;;;;;5017629;28;20022;-68
2021/04/10 02:01:52;;;;;;;10.38;5.32;;;21.60;73.40;;;;;;5023380;28;20069;-69
2021/04/10 02:04:58;;;;;;;13.38;5.95;;;21.60;73.40;;;;;;5025739;28;20025;-72
2021/04/10 02:08:04;;;;;;;8.85;4.05;;;21.50;73.30;;;;;;5025033;28;20044;-69
2021/04/10 02:11:10;;;;;;;10.85;5.22;;;21.50;73.30;;;;;;5027926;28;20021;-78
2021/04/10 02:14:16;;;;;;;10.30;5.15;;;21.50;73.30;;;;;;5028083;28;20472;-74
2021/04/10 02:17:22;;;;;;;10.82;6.30;;;21.50;73.90;;;;;;5021518;28;20376;-68
2021/04/10 02:20:28;;;;;;;13.00;5.03;;;21.50;73.20;;;;;;5023162;28;20489;-72
2021/04/10 02:23:34;;;;;;;9.55;5.38;;;21.50;73.40;;;;;;5025789;28;20026;-70
2021/04/10 02:26:01;;;;;;;10.27;4.38;;;21.50;73.50;;;;;;5025446;28;20477;-74
2021/04/10 02:28:28;;;;;;;15.35;5.45;;;21.50;73.50;;;;;;5026579;28;20065;-73
2021/04/10 02:30:57;;;;;;;13.23;4.15;;;21.50;73.60;;;;;;5019357;28;20028;-77
2021/04/10 02:33:39;;;;;;;9.57;4.63;;;21.40;73.60;;;;;;5024804;28;20041;-77
2021/04/10 02:36:09;;;;;;;8.27;6.20;;;21.40;73.60;;;;;;5021565;28;20024;-69
2021/04/10 02:38:37;;;;;;;20.30;12.40;;;21.40;73.60;;;;;;5019147;28;20496;-69
2021/04/10 02:41:14;;;;;;;15.05;10.52;;;21.40;73.70;;;;;;5028887;28;20025;-75
2021/04/10 02:43:45;;;;;;;18.90;8.63;;;21.40;73.90;;;;;;5027502;28;20021;-68
2021/04/10 02:46:15;;;;;;;10.02;7.28;;;21.40;74.00;;;;;;5021029;28;20044;-69
2021/04/10 02:49:13;;;;;;;8.60;5.63;;;21.40;74.00;;;;;;5020359;28;20021;-72
2021/04/10 02:51:44;;;;;;;8.25;4.75;;;21.40;74.10;;;;;;5017493;28;20041;-69
2021/04/10 02:54:16;;;;;;;6.88;4.18;;;21.40;74.80;;;;;;5023446;28;20034;-68
2021/04/10 02:56:49;;;;;;;9.20;4.28;;;21.40;74.20;;;;;;5022045;28;20029;-68
2021/04/10 02:59:20;;;;;;;9.77;4.25;;;21.40;74.30;;;;;;5025370;28;20039;-74
2021/04/10 03:01:47;;;;;;;13.60;5.07;;;21.30;74.40;;;;;;5025050;28;20029;-68
2021/04/10 03:04:15;;;;;;;11.07;4.47;;;21.30;74.40;;;;;;5023197;28;20483;-68
2021/04/10 03:06:41;;;;;;;13.18;4.40;;;21.30;74.40;;;;;;5025758;28;20542;-69
2021/04/10 03:09:09;;;;;;;9.52;5.95;;;21.30;74.50;;;;;;5024289;28;20021;-68
2021/04/10 03:11:35;;;;;;;11.48;4.97;;;21.30;74.50;;;;;;5019420;28;20165;-72
2021/04/10 03:14:08;;;;;;;9.80;4.22;;;21.30;74.50;;;;;;5023092;28;20063;-69
2021/04/10 03:16:35;;;;;;;6.97;4.63;;;21.30;74.50;;;;;;5025142;28;20049;-68
2021/04/10 03:19:06;;;;;;;7.88;4.35;;;21.30;74.60;;;;;;5021038;28;20542;-71
2021/04/10 03:21:33;;;;;;;6.97;4.22;;;21.30;74.60;;;;;;5025818;28;20021;-69
2021/04/10 03:23:59;;;;;;;9.63;4.32;;;21.20;74.70;;;;;;5020408;28;20148;-69
2021/04/10 03:26:26;;;;;;;7.70;3.55;;;21.30;74.80;;;;;;5017100;28;20103;-72
2021/04/10 03:28:55;;;;;;;5.28;3.47;;;21.20;74.70;;;;;;5027292;28;20025;-69
2021/04/10 03:31:22;;;;;;;4.68;3.03;;;21.20;74.80;;;;;;5025736;28;20021;-68
2021/04/10 03:33:49;;;;;;;6.25;3.78;;;21.20;74.80;;;;;;5022473;28;20539;-70
2021/04/10 03:36:16;;;;;;;7.45;3.67;;;21.20;74.80;;;;;;5019799;28;20113;-69
2021/04/10 03:38:43;;;;;;;6.40;3.10;;;21.20;74.80;;;;;;5023515;28;20021;-69
2021/04/10 03:41:09;;;;;;;7.18;3.13;;;21.20;74.80;;;;;;5022436;28;20036;-69
2021/04/10 03:43:36;;;;;;;5.00;2.33;;;21.20;74.90;;;;;;5025738;28;20434;-69
2021/04/10 03:46:03;;;;;;;9.55;3.05;;;21.20;75.60;;;;;;5022152;28;20435;-69
2021/04/10 03:48:29;;;;;;;4.80;2.92;;;21.20;75.00;;;;;;5020425;28;20056;-68
2021/04/10 03:50:57;;;;;;;3.45;2.85;;;21.20;75.00;;;;;;5022470;28;20022;-69
2021/04/10 03:53:24;;;;;;;9.18;2.83;;;21.10;75.00;;;;;;5023770;28;20032;-68
2021/04/10 03:55:50;;;;;;;6.22;2.10;;;21.20;75.10;;;;;;5018169;28;20022;-68
2021/04/10 03:58:17;;;;;;;7.57;2.70;;;21.20;75.10;;;;;;5023845;28;20036;-68
2021/04/10 04:00:43;;;;;;;6.55;2.60;;;21.10;75.10;;;;;;5019356;28;20041;-69
2021/04/10 04:03:10;;;;;;;10.02;2.10;;;21.20;75.10;;;;;;5026516;28;20075;-69
2021/04/10 04:05:36;;;;;;;6.07;2.78;;;21.10;75.20;;;;;;5023481;28;20456;-73
2021/04/10 04:08:03;;;;;;;6.28;2.42;;;21.10;75.10;;;;;;5020506;28;20030;-70
2021/04/10 04:10:30;;;;;;;4.45;2.25;;;21.10;75.10;;;;;;5021982;28;20120;-72
2021/04/10 04:12:56;;;;;;;4.13;1.98;;;21.10;75.10;;;;;;5020270;28;20033;-70
2021/04/10 04:15:23;;;;;;;6.18;3.22;;;21.10;75.10;;;;;;5024604;28;20101;-68
2021/04/10 04:17:49;;;;;;;10.95;2.25;;;21.10;75.10;;;;;;5028191;28;20020;-68
2021/04/10 04:20:16;;;;;;;6.25;2.17;;;21.10;75.00;;;;;;5019848;28;20057;-68
2021/04/10 04:22:43;;;;;;;5.00;2.10;;;21.10;75.00;;;;;;5022548;28;20025;-69
2021/04/10 04:25:10;;;;;;;12.45;5.57;;;21.10;75.00;;;;;;5022285;28;20033;-69
2021/04/10 04:27:37;;;;;;;11.70;8.77;;;21.10;75.00;;;;;;5028247;28;20018;-67
2021/04/10 04:30:08;;;;;;;10.23;6.72;;;21.10;75.00;;;;;;5022571;28;20014;-71
2021/04/10 04:32:35;;;;;;;11.55;4.68;;;21.10;74.90;;;;;;5021920;28;20048;-66
2021/04/10 04:35:01;;;;;;;7.75;3.85;;;21.00;74.90;;;;;;5023139;28;20140;-67
2021/04/10 04:37:28;;;;;;;9.55;3.97;;;21.10;75.00;;;;;;5019047;28;20030;-65
2021/04/10 04:39:54;;;;;;;5.88;2.70;;;21.00;74.90;;;;;;5022155;28;20037;-68
2021/04/10 04:42:21;;;;;;;6.93;2.15;;;21.00;74.90;;;;;;5031639;28;20391;-66
2021/04/10 04:44:47;;;;;;;7.28;3.03;;;21.00;74.80;;;;;;5030051;28;20022;-67
2021/04/10 04:47:14;;;;;;;5.60;2.60;;;21.00;74.90;;;;;;5026917;28;20018;-74
2021/04/10 04:49:40;;;;;;;6.95;2.88;;;21.00;74.80;;;;;;5021371;28;20037;-66
2021/04/10 04:52:07;;;;;;;9.23;3.45;;;21.00;74.80;;;;;;5022819;28;20036;-66
2021/04/10 04:54:33;;;;;;;8.15;2.97;;;21.00;74.80;;;;;;5028982;28;20120;-66
2021/04/10 04:57:00;;;;;;;10.18;3.63;;;21.00;74.70;;;;;;5031023;28;20018;-71
2021/04/10 04:59:26;;;;;;;6.82;2.72;;;21.00;74.70;;;;;;5027080;28;20044;-66
2021/04/10 05:01:53;;;;;;;6.65;2.55;;;20.90;74.60;;;;;;5022902;28;20048;-73
2021/04/10 05:04:19;;;;;;;13.15;2.90;;;20.90;74.70;;;;;;5029885;28;20032;-72
2021/04/10 05:06:46;;;;;;;9.38;3.65;;;20.90;74.70;;;;;;5023130;28;20116;-67
2021/04/10 05:09:12;;;;;;;5.95;2.22;;;20.90;74.70;;;;;;5022921;28;20021;-69
2021/04/10 05:11:39;;;;;;;10.18;6.25;;;20.90;74.70;;;;;;5026212;28;20076;-69
2021/04/10 05:14:05;;;;;;;15.40;11.05;;;20.90;74.70;;;;;;5023561;28;20063;-71
2021/04/10 05:16:32;;;;;;;10.98;7.60;;;20.90;74.60;;;;;;5023048;28;20509;-75
2021/04/10 05:18:59;;;;;;;14.50;6.15;;;20.90;74.60;;;;;;5021460;28;20524;-66
2021/04/10 05:21:25;;;;;;;8.18;5.10;;;20.90;74.60;;;;;;5022865;28;20531;-69
2021/04/10 05:23:52;;;;;;;7.47;4.10;;;20.90;74.70;;;;;;5021784;28;20075;-72
2021/04/10 05:26:18;;;;;;;4.43;3.17;;;20.90;74.70;;;;;;5018620;28;20036;-75
2021/04/10 05:28:45;;;;;;;7.70;3.10;;;20.90;74.80;;;;;;5021489;28;20389;-70
2021/04/10 05:31:12;;;;;;;5.13;3.45;;;20.90;74.80;;;;;;5022891;28;20029;-68
2021/04/10 05:33:38;;;;;;;10.32;4.07;;;20.90;74.90;;;;;;5027206;28;20061;-73
2021/04/10 05:36:05;;;;;;;5.18;3.33;;;20.90;74.80;;;;;;5027958;28;20064;-74
2021/04/10 05:38:32;;;;;;;6.00;3.75;;;20.90;74.90;;;;;;5027077;28;20017;-70
2021/04/10 05:40:58;;;;;;;9.50;4.22;;;20.90;75.00;;;;;;5025729;28;20435;-73
2021/04/10 05:43:26;;;;;;;4.30;2.78;;;20.80;75.10;;;;;;5020380;28;20033;-72
2021/04/10 05:45:53;;;;;;;9.63;3.60;;;20.90;75.30;;;;;;5018657;28;20037;-71
2021/04/10 05:48:19;;;;;;;3.42;2.63;;;20.80;75.20;;;;;;5017930;28;20026;-73
2021/04/10 05:50:46;;;;;;;7.55;4.93;;;20.90;75.30;;;;;;5016556;28;20018;-77
2021/04/10 05:53:13;;;;;;;5.20;3.45;;;20.80;75.30;;;;;;5018233;28;20049;-69
2021/04/10 05:55:39;;;;;;;5.75;3.28;;;20.80;75.40;;;;;;5017203;28;20033;-71
2021/04/10 05:58:06;;;;;;;6.90;3.17;;;20.80;75.50;;;;;;5025854;28;20045;-70
2021/04/10 06:00:32;;;;;;;11.63;4.43;;;20.80;75.50;;;;;;5021631;28;20044;-69
2021/04/10 06:02:58;;;;;;;17.08;11.68;;;20.90;75.60;;;;;;5026347;28;20084;-69
2021/04/10 06:05:25;;;;;;;24.25;16.00;;;20.80;75.70;;;;;;5022421;28;20018;-70
2021/04/10 06:07:52;;;;;;;15.80;12.32;;;20.80;75.80;;;;;;5026372;28;20263;-72
2021/04/10 06:10:19;;;;;;;16.35;10.20;;;20.90;76.50;;;;;;5026828;28;20018;-73
2021/04/10 06:12:47;;;;;;;11.95;7.80;;;20.80;75.80;;;;;;5021187;28;20072;-75
2021/04/10 06:15:19;;;;;;;9.98;6.15;;;20.90;75.90;;;;;;5026127;28;20587;-73
2021/04/10 06:17:46;;;;;;;12.07;5.30;;;20.80;75.90;;;;;;5025350;28;20033;-70
2021/04/10 06:20:18;;;;;;;9.55;4.55;;;20.90;75.90;;;;;;5026848;28;20029;-71
2021/04/10 06:22:44;;;;;;;16.70;6.07;;;20.80;76.10;;;;;;5023783;28;20021;-70
2021/04/10 06:25:11;;;;;;;90.45;13.27;;;20.80;76.20;;;;;;5021900;28;20018;-72
2021/04/10 06:27:38;;;;;;;85.53;11.55;;;20.80;76.20;;;;;;5023530;28;20025;-69
2021/04/10 06:30:06;;;;;;;61.17;19.30;;;20.80;76.40;;;;;;5028023;28;20029;-71
2021/04/10 06:32:33;;;;;;;50.05;19.83;;;20.80;76.30;;;;;;5018557;28;20041;-69
2021/04/10 06:34:59;;;;;;;40.65;16.35;;;20.90;76.40;;;;;;5019249;28;20058;-70
2021/04/10 06:37:54;;;;;;;29.35;14.43;;;20.90;76.50;;;;;;5021687;28;20025;-71
2021/04/10 06:40:21;;;;;;;23.70;10.93;;;20.90;76.60;;;;;;5037208;28;21067;-74
2021/04/10 06:42:48;;;;;;;19.50;8.60;;;20.90;76.70;;;;;;5029042;28;20025;-78
2021/04/10 06:45:14;;;;;;;17.85;9.68;;;20.90;76.80;;;;;;5023261;28;20063;-74
2021/04/10 06:47:44;;;;;;;13.98;7.88;;;20.90;76.90;;;;;;5026421;28;20021;-75
2021/04/10 06:50:13;;;;;;;15.18;5.93;;;21.00;77.00;;;;;;5028223;28;20473;-70
2021/04/10 06:52:41;;;;;;;10.65;5.53;;;21.00;77.00;;;;;;5031763;28;20394;-68
2021/04/10 06:55:19;;;;;;;14.13;5.75;;;21.00;77.00;;;;;;5030754;28;20028;-72
2021/04/10 06:58:05;;;;;;;13.63;5.60;;;21.00;77.80;;;;;;5024108;28;20452;-74
2021/04/10 07:00:32;;;;;;;;;;;21.10;77.10;;;;;;5021166;28;20045;-72
2021/04/10 07:03:01;;;;;;;14.75;5.72;;;21.10;77.10;;;;;;5016610;28;20008;-73
2021/04/10 07:05:28;;;;;;;18.67;6.25;;;21.10;77.10;;;;;;5023545;28;20032;-70
2021/04/10 07:07:56;;;;;;;19.95;6.05;;;21.10;77.00;;;;;;5023027;28;20056;-73
2021/04/10 07:10:23;;;;;;;23.05;5.93;;;21.20;77.00;;;;;;5027015;28;20102;-74
2021/04/10 07:12:49;;;;;;;21.92;6.03;;;21.20;77.30;;;;;;5021470;28;20036;-68
2021/04/10 07:15:17;;;;;;;21.23;6.13;;;21.20;77.40;;;;;;5024001;28;20022;-70
2021/04/10 07:17:44;;;;;;;14.20;6.60;;;21.20;77.50;;;;;;5030088;28;20112;-70
2021/04/10 07:20:28;;;;;;;19.10;9.45;;;21.20;77.60;;;;;;5022836;28;20029;-68
2021/04/10 07:23:09;;;;;;;18.75;6.90;;;21.30;77.70;;;;;;5023328;28;20037;-68
2021/04/10 07:25:39;;;;;;;16.88;5.93;;;21.30;77.70;;;;;;5020383;28;20026;-69
2021/04/10 07:28:31;;;;;;;13.27;5.38;;;21.30;77.70;;;;;;5017638;28;20032;-68
2021/04/10 07:30:59;;;;;;;58.55;11.13;;;21.30;77.70;;;;;;5024715;28;20037;-68
2021/04/10 07:34:05;;;;;;;22.70;6.28;;;21.30;77.60;;;;;;5022652;28;20038;-72
2021/04/10 07:37:14;;;;;;;26.20;6.88;;;21.40;77.80;;;;;;5016351;28;20109;-71
2021/04/10 07:39:47;;;;;;;21.65;7.05;;;21.30;78.10;;;;;;5021234;28;20513;-69
2021/04/10 07:42:23;;;;;;;17.20;7.20;;;21.40;78.30;;;;;;5025790;28;20042;-69
2021/04/10 07:44:49;;;;;;;17.65;4.63;;;21.40;78.20;;;;;;5025078;28;20021;-72
2021/04/10 07:47:16;;;;;;;12.95;5.13;;;21.50;78.10;;;;;;5023296;28;20392;-70
2021/04/10 07:49:42;;;;;;;13.35;4.60;;;21.50;77.90;;;;;;5021484;28;20199;-69
2021/04/10 07:52:09;;;;;;;12.00;3.63;;;21.50;77.70;;;;;;5021408;28;20022;-69
2021/04/10 07:54:41;;;;;;;9.70;4.07;;;21.50;77.60;;;;;;5019733;28;20041;-68
2021/04/10 07:57:11;;;;;;;7.10;3.50;;;21.60;77.40;;;;;;5022409;28;20033;-70
2021/04/10 07:59:50;;;;;;;10.95;3.92;;;21.60;77.30;;;;;;5026862;28;20033;-71
2021/04/10 08:02:17;;;;;;;6.18;3.38;;;21.70;77.10;;;;;;5017154;28;20033;-72
2021/04/10 08:05:07;;;;;;;8.85;3.78;;;21.70;76.90;;;;;;5019312;28;20026;-71
2021/04/10 08:07:36;;;;;;;6.47;2.30;;;21.70;76.70;;;;;;5020801;28;20025;-71
2021/04/10 08:10:08;;;;;;;6.10;2.90;;;21.70;76.50;;;;;;5021274;28;20053;-72
2021/04/10 08:12:37;;;;;;;5.75;3.00;;;21.80;76.40;;;;;;5024868;28;20345;-69
2021/04/10 08:15:08;;;;;;;5.88;2.58;;;21.80;76.20;;;;;;5027869;28;20036;-72
2021/04/10 08:17:42;;;;;;;5.25;3.47;;;21.90;76.10;;;;;;5028702;28;20073;-71
2021/04/10 08:20:21;;;;;;;6.70;3.23;;;21.90;75.90;;;;;;5029515;28;20123;-74
2021/04/10 08:22:47;;;;;;;3.17;2.45;;;21.90;75.70;;;;;;5021954;28;20033;-70
2021/04/10 08:25:29;;;;;;;5.75;4.28;;;22.00;75.60;;;;;;5027165;28;20030;-68
2021/04/10 08:27:57;;;;;;;4.50;3.00;;;22.10;75.50;;;;;;5024910;28;20025;-70
2021/04/10 08:30:25;;;;;;;6.35;3.50;;;22.10;75.30;;;;;;5024360;28;20030;-69
2021/04/10 08:32:52;;;;;;;5.72;3.22;;;22.10;75.30;;;;;;5026595;28;21125;-69
2021/04/10 08:35:18;;;;;;;4.25;3.03;;;22.20;75.10;;;;;;5030177;28;20026;-69
2021/04/10 08:37:52;;;;;;;4.95;2.80;;;22.20;74.80;;;;;;5031042;28;20060;-70
2021/04/10 08:40:23;;;;;;;7.13;2.67;;;22.30;74.60;;;;;;5026915;28;20507;-74
2021/04/10 08:42:51;;;;;;;4.82;2.90;;;22.40;74.40;;;;;;5043458;28;20060;-71
2021/04/10 08:45:18;;;;;;;6.00;3.15;;;22.40;74.10;;;;;;5027663;28;20056;-71
2021/04/10 08:47:45;;;;;;;5.57;2.33;;;22.40;73.60;;;;;;5032227;28;20029;-71
2021/04/10 08:50:12;;;;;;;7.95;3.25;;;22.50;73.60;;;;;;5025962;28;20026;-75
2021/04/10 08:52:40;;;;;;;6.82;3.63;;;22.60;73.60;;;;;;5025152;28;20028;-72
2021/04/10 08:55:09;;;;;;;5.68;2.80;;;22.60;73.40;;;;;;5024487;28;20025;-68
2021/04/10 08:57:40;;;;;;;4.30;2.72;;;22.70;73.20;;;;;;5027264;28;20021;-71
2021/04/10 09:00:25;;;;;;;3.20;2.80;;;22.70;73.00;;;;;;5025679;28;20477;-68
2021/04/10 09:03:00;;;;;;;6.00;2.30;;;22.80;72.60;;;;;;5025510;28;20022;-69
2021/04/10 09:05:50;;;;;;;7.03;2.50;;;22.90;72.50;;;;;;5027077;28;20030;-70
2021/04/10 09:08:27;;;;;;;7.22;3.15;;;22.90;72.00;;;;;;5028838;28;20036;-69
2021/04/10 09:11:04;;;;;;;4.72;2.00;;;23.00;71.80;;;;;;5027597;28;20484;-68
2021/04/10 09:13:33;;;;;;;4.88;2.83;;;23.10;71.40;;;;;;5026613;28;20564;-72
2021/04/10 09:16:23;;;;;;;4.65;2.22;;;23.20;71.20;;;;;;5026495;28;20029;-68
2021/04/10 09:19:14;;;;;;;3.60;2.28;;;23.20;71.00;;;;;;5029171;28;20477;-69
2021/04/10 09:21:40;;;;;;;10.52;3.30;;;23.30;70.60;;;;;;5021403;28;20030;-70
2021/04/10 09:24:25;;;;;;;4.57;2.40;;;23.40;70.50;;;;;;5029449;28;20547;-71
2021/04/10 09:27:05;;;;;;;3.13;2.20;;;23.50;70.20;;;;;;5020562;28;20397;-71
2021/04/10 09:30:10;;;;;;;9.10;3.05;;;23.60;70.10;;;;;;5027456;28;20033;-69
2021/04/10 09:32:44;;;;;;;7.88;2.75;;;23.60;69.80;;;;;;5027359;28;20571;-69
2021/04/10 09:35:19;;;;;;;8.60;3.03;;;23.70;69.40;;;;;;5025034;28;20041;-69
2021/04/10 09:37:47;;;;;;;6.20;3.00;;;23.70;68.80;;;;;;5022502;28;20037;-70
2021/04/10 09:40:20;;;;;;;11.27;3.40;;;23.80;68.50;;;;;;5020648;28;20037;-71
2021/04/10 09:43:03;;;;;;;11.80;3.45;;;23.90;68.50;;;;;;5027965;28;20469;-69
2021/04/10 09:45:34;;;;;;;7.28;2.80;;;23.90;68.30;;;;;;5021522;28;20013;-70
2021/04/10 09:48:04;;;;;;;5.88;2.40;;;23.90;68.20;;;;;;5026146;28;20049;-70
2021/04/10 09:50:42;;;;;;;8.07;3.00;;;24.00;68.10;;;;;;5029679;28;20491;-73
2021/04/10 09:53:16;;;;;;;9.18;4.35;;;24.10;67.80;;;;;;5023344;28;20044;-71
2021/04/10 09:55:45;;;;;;;6.25;3.10;;;24.10;67.70;;;;;;5025835;28;20037;-69
2021/04/10 09:58:14;;;;;;;7.30;2.85;;;24.20;67.30;;;;;;5030023;28;20029;-71
2021/04/10 10:00:43;;;;;;;6.78;2.90;;;24.20;67.10;;;;;;5028091;28;20048;-69
2021/04/10 10:03:12;;;;;;;8.57;3.20;;;24.30;66.80;;;;;;5021621;28;20547;-71
2021/04/10 10:05:41;;;;;;;7.90;2.72;;;24.30;66.10;;;;;;5026541;28;20147;-70
2021/04/10 10:08:13;;;;;;;4.80;2.40;;;24.30;66.60;;;;;;5019487;28;20037;-70
2021/04/10 10:10:48;;;;;;;5.63;2.33;;;24.30;66.00;;;;;;5021015;28;20108;-70
2021/04/10 10:13:17;;;;;;;6.47;2.70;;;24.30;66.00;;;;;;5024427;28;20044;-69
2021/04/10 10:15:45;;;;;;;5.63;2.10;;;24.40;65.20;;;;;;5027553;28;20045;-69
2021/04/10 10:18:18;;;;;;;9.07;1.92;;;24.40;65.20;;;;;;5025002;28;20033;-73
2021/04/10 10:21:11;;;;;;;4.97;2.30;;;24.40;65.30;;;;;;5020937;28;20040;-69
2021/04/10 10:23:46;;;;;;;3.15;1.85;;;24.50;65.20;;;;;;5027119;28;20025;-72
2021/04/10 10:26:13;;;;;;;6.35;3.00;;;24.50;64.30;;;;;;5024473;28;20025;-72
2021/04/10 10:28:42;;;;;;;4.03;2.28;;;24.40;63.90;;;;;;5023725;28;20036;-73
2021/04/10 10:31:12;;;;;;;6.82;2.35;;;24.50;64.20;;;;;;5021125;28;20021;-71
2021/04/10 10:33:40;;;;;;;4.68;2.28;;;24.50;64.30;;;;;;5014097;28;20102;-70
2021/04/10 10:36:08;;;;;;;5.43;2.60;;;24.50;64.20;;;;;;5022019;28;20489;-70
2021/04/10 10:38:37;;;;;;;8.00;3.15;;;24.60;64.30;;;;;;5020451;28;20021;-69
2021/04/10 10:41:28;;;;;;;5.03;2.13;;;24.60;64.30;;;;;;5023543;28;20115;-71
2021/04/10 10:44:01;;;;;;;7.43;1.83;;;24.60;64.10;;;;;;5014624;28;20025;-70
2021/04/10 10:46:28;;;;;;;3.53;2.88;;;24.70;64.20;;;;;;5019695;28;20025;-73
2021/04/10 10:48:54;;;;;;;3.40;1.75;;;24.70;63.90;;;;;;5021823;28;20026;-70
2021/04/10 10:51:23;;;;;;;6.03;1.92;;;24.60;63.50;;;;;;5027570;28;20372;-69
2021/04/10 10:53:56;;;;;;;9.30;3.25;;;24.70;63.70;;;;;;5023004;28;20384;-67
2021/04/10 10:56:28;;;;;;;6.30;2.63;;;24.80;63.60;;;;;;5020766;28;20030;-67
2021/04/10 10:59:34;;;;;;;13.98;4.35;;;24.90;63.50;;;;;;5023911;28;20024;-70
2021/04/10 11:02:20;;;;;;;;;;;25.10;63.00;;;;;;5021121;28;20045;-68
2021/04/10 11:05:26;;;;;;;8.70;3.28;;;25.20;62.80;;;;;;5023770;28;19948;-66
2021/04/10 11:07:53;;;;;;;3.65;2.33;;;25.30;61.50;;;;;;5018206;28;20573;-66
2021/04/10 11:10:19;;;;;;;5.75;2.67;;;25.30;61.10;;;;;;5021689;28;20029;-71
2021/04/10 11:12:46;;;;;;;3.70;2.20;;;25.20;60.90;;;;;;5022926;28;20684;-67
2021/04/10 11:15:13;;;;;;;7.80;3.45;;;25.20;61.30;;;;;;5025560;28;20083;-66
2021/04/10 11:17:40;;;;;;;6.38;1.98;;;25.20;61.30;;;;;;5018928;28;20469;-69
2021/04/10 11:20:34;;;;;;;4.43;2.15;;;25.30;61.30;;;;;;5016932;28;20044;-68
2021/04/10 11:23:07;;;;;;;5.72;2.08;;;25.30;61.40;;;;;;5025784;28;20033;-70
2021/04/10 11:25:54;;;;;;;6.45;2.50;;;25.40;61.70;;;;;;5023130;28;20036;-69
2021/04/10 11:28:31;;;;;;;5.28;2.35;;;25.40;61.70;;;;;;5024568;28;20442;-69
2021/04/10 11:31:07;;;;;;;9.18;2.55;;;25.40;61.70;;;;;;5020102;28;20032;-69
2021/04/10 11:33:36;;;;;;;5.97;2.20;;;25.50;61.70;;;;;;5025734;28;20037;-72
2021/04/10 11:36:03;;;;;;;5.45;2.25;;;25.60;62.20;;;;;;5023639;28;20036;-69
2021/04/10 11:38:29;;;;;;;6.72;3.97;;;25.70;61.90;;;;;;5024435;28;20025;-70
2021/04/10 11:40:56;;;;;;;6.35;3.17;;;25.80;61.80;;;;;;5027486;28;20045;-70
2021/04/10 11:43:22;;;;;;;5.57;2.97;;;25.70;61.60;;;;;;5024681;28;20108;-68
2021/04/10 11:45:51;;;;;;;4.95;2.35;;;25.80;61.80;;;;;;5024692;28;20013;-72
2021/04/10 11:48:22;;;;;;;5.07;3.25;;;25.80;61.30;;;;;;5023119;28;20030;-67
2021/04/10 11:51:00;;;;;;;6.03;2.80;;;25.70;61.20;;;;;;5024030;28;20030;-68
2021/04/10 11:53:36;;;;;;;4.30;1.98;;;25.80;61.00;;;;;;5026266;28;20032;-68
2021/04/10 11:56:26;;;;;;;7.70;3.25;;;25.80;60.90;;;;;;5019812;28;20029;-66
2021/04/10 11:59:05;;;;;;;10.25;7.95;;;25.90;61.40;;;;;;5017933;28;20028;-67
2021/04/10 12:01:33;;;;;;;5.55;4.07;;;25.90;60.60;;;;;;5021292;28;20152;-66
2021/04/10 12:04:02;;;;;;;4.15;2.88;;;26.00;60.60;;;;;;5021460;28;20033;-67
2021/04/10 12:06:37;;;;;;;3.75;2.28;;;26.00;60.40;;;;;;5021700;28;20380;-66
2021/04/10 12:09:12;;;;;;;5.85;4.00;;;26.00;60.20;;;;;;5017452;28;20113;-70
2021/04/10 12:12:18;;;;;;;5.38;4.40;;;26.10;60.10;;;;;;5022000;28;20476;-69
2021/04/10 12:15:24;;;;;;;3.42;2.83;;;26.20;59.80;;;;;;5020701;28;20038;-70
2021/04/10 12:17:50;;;;;;;4.43;2.50;;;26.20;59.50;;;;;;5018129;28;20029;-67
2021/04/10 12:20:17;;;;;;;8.35;2.63;;;26.30;59.20;;;;;;5022749;28;20017;-68
2021/04/10 12:22:44;;;;;;;4.38;2.20;;;26.40;59.20;;;;;;5022704;28;20028;-69
2021/04/10 12:25:12;;;;;;;3.03;2.17;;;26.50;59.00;;;;;;5018687;28;20042;-67
2021/04/10 12:27:38;;;;;;;20.60;16.05;;;26.50;58.70;;;;;;5020997;28;20022;-67
2021/04/10 12:30:06;;;;;;;8.45;4.68;;;26.60;58.50;;;;;;5019246;28;20440;-71
2021/04/10 12:32:33;;;;;;;5.72;3.10;;;26.60;58.20;;;;;;5022533;28;20468;-71
2021/04/10 12:35:40;;;;;;;4.70;2.30;;;26.70;58.20;;;;;;5023257;28;20025;-67
2021/04/10 12:38:46;;;;;;;4.68;2.25;;;26.70;58.20;;;;;;5017273;28;20412;-68
2021/04/10 12:41:52;;;;;;;3.05;2.22;;;26.70;58.20;;;;;;5023653;28;20402;-71
2021/04/10 12:44:18;;;;;;;;;;;26.70;58.30;;;;;;5026193;28;20029;-69
2021/04/10 12:46:45;;;;;;;6.32;2.28;;;26.60;58.30;;;;;;5023215;28;19905;-68
2021/04/10 12:49:12;;;;;;;4.65;2.38;;;26.60;58.40;;;;;;5024818;28;20039;-72
2021/04/10 12:51:38;;;;;;;4.45;2.38;;;26.60;58.30;;;;;;5019546;28;20508;-71
2021/04/10 12:54:05;;;;;;;7.63;2.38;;;26.60;58.50;;;;;;5022849;28;20032;-65
2021/04/10 12:56:31;;;;;;;4.38;2.55;;;26.60;58.60;;;;;;5022892;28;20017;-67
2021/04/10 12:58:58;;;;;;;3.92;1.92;;;26.60;58.70;;;;;;5025577;28;20079;-70
2021/04/10 13:01:24;;;;;;;3.88;2.58;;;26.60;58.60;;;;;;5025189;28;20053;-71
2021/04/10 13:03:52;;;;;;;4.28;1.92;;;26.60;58.60;;;;;;5023447;28;20068;-71
2021/04/10 13:06:18;;;;;;;3.72;2.28;;;26.60;58.70;;;;;;5027702;28;20022;-72
2021/04/10 13:08:44;;;;;;;4.25;2.72;;;26.60;58.70;;;;;;5026261;28;20044;-68
2021/04/10 13:11:11;;;;;;;3.63;3.03;;;26.60;58.60;;;;;;5022481;28;20075;-69
2021/04/10 13:13:38;;;;;;;3.78;2.92;;;26.50;58.50;;;;;;5024561;28;20061;-71
2021/04/10 13:16:04;;;;;;;3.22;2.22;;;26.50;58.50;;;;;;5021778;28;20037;-67
2021/04/10 13:18:31;;;;;;;2.70;2.38;;;26.50;58.60;;;;;;5027743;28;20498;-68
2021/04/10 13:20:57;;;;;;;6.32;3.50;;;26.50;58.60;;;;;;5024599;28;20095;-71
2021/04/10 13:23:24;;;;;;;3.75;2.03;;;26.40;58.60;;;;;;5021717;28;20026;-71